Time;durP1;ratioP1;P1;durP2;ratioP2;P2;SDS_P1;SDS_P2;PMS_P1;PMS_P2;Temp;Humidity;BMP_temperature;BMP_pressure;BME280_temperature;BME280_humidity;BME280_pressure;Samples;Min_cycle;Max_cycle;Signal;HPM_P1;HPM_P2
2021/04/30 00:01:33;;;;;;;4.75;4.35;;;10.50;91.70;;;;;;5049765;28;20186;-51
2021/04/30 00:03:58;;;;;;;5.33;4.60;;;10.20;91.20;;;;;;5050346;28;20177;-51
2021/04/30 00:06:24;;;;;;;4.67;4.27;;;10.30;91.20;;;;;;5050040;28;20186;-51
2021/04/30 00:08:50;;;;;;;5.53;5.03;;;10.60;91.30;;;;;;5050314;28;20388;-51
2021/04/30 00:11:15;;;;;;;5.10;4.70;;;10.50;90.90;;;;;;5043501;28;20209;-51
2021/04/30 00:13:41;;;;;;;5.47;4.97;;;10.50;90.70;;;;;;5049650;28;20252;-51
2021/04/30 00:16:07;;;;;;;5.83;5.23;;;10.40;90.50;;;;;;5046621;28;20245;-51
2021/04/30 00:18:33;;;;;;;7.07;6.47;;;10.50;90.40;;;;;;5044205;28;20202;-51
2021/04/30 00:21:00;;;;;;;6.88;6.28;;;10.60;90.10;;;;;;5048368;28;20187;-51
2021/04/30 00:23:27;;;;;;;6.97;6.38;;;10.40;90.20;;;;;;5032041;28;20210;-51
2021/04/30 00:25:57;;;;;;;9.25;5.50;;;10.40;90.30;;;;;;5050130;28;20244;-51
2021/04/30 00:28:23;;;;;;;6.40;5.90;;;10.40;89.60;;;;;;5048581;28;20229;-50
2021/04/30 00:30:51;;;;;;;6.82;6.15;;;10.70;89.60;;;;;;5046396;28;20654;-50
2021/04/30 00:33:17;;;;;;;6.40;5.90;;;10.40;88.70;;;;;;5047712;28;20599;-51
2021/04/30 00:35:43;;;;;;;6.68;6.07;;;10.50;89.80;;;;;;5049565;28;20218;-51
2021/04/30 00:38:09;;;;;;;6.57;5.87;;;10.80;88.90;;;;;;5048471;28;20217;-51
2021/04/30 00:40:35;;;;;;;6.65;5.95;;;10.60;89.20;;;;;;5049457;28;20648;-51
2021/04/30 00:43:01;;;;;;;7.03;6.32;;;10.40;89.80;;;;;;5049215;28;20260;-51
2021/04/30 00:45:26;;;;;;;7.07;6.13;;;10.20;89.50;;;;;;5049361;28;20654;-51
2021/04/30 00:47:53;;;;;;;6.60;5.83;;;10.50;90.00;;;;;;5048892;28;20239;-50
2021/04/30 00:50:22;;;;;;;6.40;5.68;;;10.30;90.00;;;;;;5045950;28;20565;-51
2021/04/30 00:52:48;;;;;;;6.45;5.93;;;10.60;89.30;;;;;;5049193;28;20290;-51
2021/04/30 00:55:15;;;;;;;6.67;6.07;;;10.50;88.40;;;;;;5045933;28;20269;-51
2021/04/30 00:58:01;;;;;;;6.15;5.65;;;10.40;88.30;;;;;;5048818;28;20445;-51
2021/04/30 01:00:29;;;;;;;7.13;6.53;;;10.60;89.70;;;;;;5046159;28;20959;-50
2021/04/30 01:02:55;;;;;;;7.32;6.35;;;10.30;88.40;;;;;;5046957;28;20206;-51
2021/04/30 01:05:22;;;;;;;7.55;6.50;;;10.30;89.10;;;;;;5048683;28;20640;-51
2021/04/30 01:07:48;;;;;;;6.95;6.35;;;10.30;87.90;;;;;;5048837;28;20204;-51
2021/04/30 01:10:15;;;;;;;6.63;6.03;;;10.20;87.20;;;;;;5044546;28;20189;-51
2021/04/30 01:12:41;;;;;;;6.75;6.10;;;9.80;88.50;;;;;;5050308;28;20205;-51
2021/04/30 01:15:08;;;;;;;6.43;5.82;;;10.30;87.80;;;;;;5048292;28;20193;-51
2021/04/30 01:17:35;;;;;;;6.35;5.43;;;10.10;87.50;;;;;;5045580;28;20190;-50
2021/04/30 01:20:01;;;;;;;6.93;6.32;;;10.40;87.90;;;;;;5045208;28;20224;-50
2021/04/30 01:22:40;;;;;;;7.07;6.47;;;10.20;87.40;;;;;;5047698;28;20202;-50
2021/04/30 01:25:09;;;;;;;6.15;5.55;;;10.20;87.30;;;;;;5036476;28;20938;-50
2021/04/30 01:27:36;;;;;;;6.97;6.38;;;10.00;86.80;;;;;;5048389;28;20220;-50
2021/04/30 01:30:26;;;;;;;7.05;6.20;;;10.00;85.90;;;;;;5048746;28;20200;-50
2021/04/30 01:32:52;;;;;;;7.43;6.55;;;10.20;85.30;;;;;;5054542;28;20214;-51
2021/04/30 01:35:21;;;;;;;7.75;7.05;;;10.10;86.20;;;;;;5039194;28;20213;-51
2021/04/30 01:37:48;;;;;;;7.90;7.15;;;9.70;87.60;;;;;;5040222;28;20527;-51
2021/04/30 01:40:22;;;;;;;6.97;6.25;;;10.00;87.50;;;;;;5047602;28;20300;-51
2021/04/30 01:43:05;;;;;;;8.18;7.38;;;9.80;87.40;;;;;;5047185;28;20668;-51
2021/04/30 01:45:36;;;;;;;7.70;7.00;;;10.20;85.80;;;;;;5044332;28;20652;-51
2021/04/30 01:48:08;;;;;;;7.57;6.78;;;10.10;85.60;;;;;;5048337;28;20331;-51
2021/04/30 01:50:35;;;;;;;7.90;6.72;;;10.10;85.80;;;;;;5049425;28;20182;-51
2021/04/30 01:53:01;;;;;;;7.80;7.10;;;10.00;85.60;;;;;;5047668;28;20281;-51
2021/04/30 01:55:28;;;;;;;7.73;6.13;;;10.10;85.10;;;;;;5044662;28;20576;-51
2021/04/30 01:57:55;;;;;;;7.88;7.07;;;10.20;85.20;;;;;;5047325;28;20516;-51
2021/04/30 02:00:25;;;;;;;7.25;6.55;;;9.90;86.30;;;;;;5047799;28;20838;-51
2021/04/30 02:02:52;;;;;;;7.78;6.97;;;10.00;85.20;;;;;;5047687;28;20210;-51
2021/04/30 02:05:19;;;;;;;9.10;8.23;;;10.00;85.40;;;;;;5047859;28;20181;-51
2021/04/30 02:07:45;;;;;;;9.65;6.45;;;10.10;86.00;;;;;;5047531;28;20550;-51
2021/04/30 02:10:16;;;;;;;8.27;6.57;;;10.10;85.70;;;;;;5047569;28;20259;-51
2021/04/30 02:12:42;;;;;;;8.23;7.10;;;9.90;87.00;;;;;;5047170;28;20259;-51
2021/04/30 02:15:11;;;;;;;7.60;6.90;;;10.10;86.00;;;;;;5046433;28;20182;-51
2021/04/30 02:17:37;;;;;;;8.65;7.85;;;10.10;86.50;;;;;;5046995;28;20204;-51
2021/04/30 02:20:05;;;;;;;7.93;7.23;;;10.00;85.30;;;;;;5047670;28;20289;-51
2021/04/30 02:22:31;;;;;;;9.93;8.60;;;10.00;85.80;;;;;;5056233;28;20475;-51
2021/04/30 02:24:57;;;;;;;9.83;8.20;;;10.10;87.50;;;;;;5050765;28;20582;-51
2021/04/30 02:27:23;;;;;;;8.93;8.00;;;9.90;90.00;;;;;;5043381;28;20924;-50
2021/04/30 02:29:49;;;;;;;10.43;9.37;;;10.10;90.10;;;;;;5046827;28;20247;-50
2021/04/30 02:32:15;;;;;;;10.05;9.05;;;10.20;90.90;;;;;;5048683;28;20571;-51
2021/04/30 02:34:40;;;;;;;10.90;8.73;;;10.20;92.40;;;;;;5044757;28;20187;-50
2021/04/30 02:37:06;;;;;;;9.47;8.57;;;9.90;92.30;;;;;;5047509;28;20440;-51
2021/04/30 02:39:32;;;;;;;12.90;9.40;;;9.70;92.90;;;;;;5047082;28;20206;-51
2021/04/30 02:41:58;;;;;;;11.40;9.35;;;9.60;92.00;;;;;;5045577;28;20206;-51
2021/04/30 02:44:24;;;;;;;11.13;9.07;;;9.80;92.00;;;;;;5044464;28;20562;-51
2021/04/30 02:46:50;;;;;;;10.43;9.30;;;9.60;91.90;;;;;;5044115;28;20186;-51
2021/04/30 02:49:17;;;;;;;11.50;9.57;;;9.70;91.50;;;;;;5046191;28;20196;-51
2021/04/30 02:51:42;;;;;;;9.98;8.90;;;9.70;90.80;;;;;;5047069;28;20231;-51
2021/04/30 02:54:08;;;;;;;9.37;8.30;;;9.90;91.80;;;;;;5047850;28;20185;-51
2021/04/30 02:56:38;;;;;;;9.93;8.93;;;9.80;92.60;;;;;;5047668;28;20194;-51
2021/04/30 02:59:05;;;;;;;10.25;9.25;;;9.70;94.20;;;;;;5047689;28;20471;-51
2021/04/30 03:01:31;;;;;;;9.38;8.38;;;9.90;95.60;;;;;;5049349;28;20204;-51
2021/04/30 03:03:56;;;;;;;10.13;9.10;;;9.70;95.90;;;;;;5051415;28;20621;-51
2021/04/30 03:06:23;;;;;;;12.80;9.90;;;9.60;96.50;;;;;;5051879;28;20178;-50
2021/04/30 03:08:52;;;;;;;9.60;8.68;;;9.50;98.10;;;;;;5051854;28;20193;-51
2021/04/30 03:11:18;;;;;;;10.60;9.60;;;9.20;97.30;;;;;;5043948;28;20190;-51
2021/04/30 03:13:44;;;;;;;10.73;9.68;;;9.00;98.00;;;;;;5040657;28;20240;-50
2021/04/30 03:16:09;;;;;;;10.33;9.33;;;9.20;97.90;;;;;;5051128;28;20237;-50
2021/04/30 03:18:35;;;;;;;11.83;9.97;;;9.20;98.10;;;;;;5050709;28;20585;-50
2021/04/30 03:21:00;;;;;;;11.70;10.50;;;9.20;99.00;;;;;;5051128;28;20213;-50
2021/04/30 03:23:26;;;;;;;12.20;10.53;;;9.20;99.00;;;;;;5050895;28;20224;-50
2021/04/30 03:25:52;;;;;;;11.20;9.33;;;9.20;99.20;;;;;;5051301;28;20193;-51
2021/04/30 03:28:17;;;;;;;10.80;9.30;;;9.30;99.60;;;;;;5051027;28;20667;-51
2021/04/30 03:30:43;;;;;;;11.20;10.00;;;9.20;99.30;;;;;;5049701;28;20197;-50
2021/04/30 03:33:09;;;;;;;11.13;9.27;;;9.10;99.30;;;;;;5050826;28;20739;-51
2021/04/30 03:35:34;;;;;;;10.27;9.00;;;9.30;99.60;;;;;;5050507;28;20739;-51
2021/04/30 03:38:02;;;;;;;10.70;9.60;;;9.00;99.00;;;;;;5050057;28;20196;-50
2021/04/30 03:40:28;;;;;;;10.77;9.68;;;9.40;98.80;;;;;;5050997;28;20300;-50
2021/04/30 03:42:53;;;;;;;12.20;10.03;;;9.30;98.80;;;;;;5050519;28;20312;-50
2021/04/30 03:45:19;;;;;;;12.60;9.83;;;9.10;98.50;;;;;;5050963;28;20178;-51
2021/04/30 03:47:44;;;;;;;11.87;10.70;;;9.00;98.40;;;;;;5050340;28;20205;-50
2021/04/30 03:50:10;;;;;;;11.67;9.60;;;9.20;97.90;;;;;;5042650;28;20189;-51
2021/04/30 03:52:36;;;;;;;10.70;9.03;;;9.40;97.30;;;;;;5050346;28;20205;-50
2021/04/30 03:55:02;;;;;;;9.83;8.83;;;9.40;97.70;;;;;;5049835;28;20437;-50
2021/04/30 03:57:28;;;;;;;11.77;10.57;;;9.40;97.30;;;;;;5050530;28;20182;-50
2021/04/30 03:59:54;;;;;;;13.17;9.90;;;9.10;97.10;;;;;;5041842;28;20209;-51
2021/04/30 04:02:19;;;;;;;12.27;10.03;;;9.20;97.40;;;;;;5047382;28;20202;-50
2021/04/30 04:04:48;;;;;;;9.80;8.90;;;9.20;96.50;;;;;;5046584;28;20208;-51
2021/04/30 04:07:13;;;;;;;10.82;9.05;;;9.30;95.20;;;;;;5050028;28;20186;-50
2021/04/30 04:09:39;;;;;;;10.00;8.90;;;9.20;93.80;;;;;;5049150;28;20178;-51
2021/04/30 04:12:06;;;;;;;9.60;8.70;;;9.40;93.70;;;;;;5047067;28;20202;-50
2021/04/30 04:14:32;;;;;;;9.07;8.18;;;9.60;93.30;;;;;;5049442;28;20206;-51
2021/04/30 04:16:58;;;;;;;10.25;8.65;;;9.40;92.20;;;;;;5048186;28;20194;-50
2021/04/30 04:19:24;;;;;;;16.48;8.75;;;9.20;92.50;;;;;;5047770;28;20278;-50
2021/04/30 04:21:50;;;;;;;8.40;7.50;;;9.60;92.60;;;;;;5048661;28;20209;-50
2021/04/30 04:24:16;;;;;;;10.20;8.10;;;9.60;92.50;;;;;;5042413;28;20675;-51
2021/04/30 04:26:42;;;;;;;9.43;8.50;;;9.60;92.30;;;;;;5049792;28;20178;-51
2021/04/30 04:29:08;;;;;;;10.10;8.60;;;9.50;91.90;;;;;;5041916;28;20432;-50
2021/04/30 04:31:35;;;;;;;10.35;8.70;;;9.90;91.90;;;;;;5048352;28;20202;-50
2021/04/30 04:34:00;;;;;;;13.82;9.65;;;9.70;91.60;;;;;;5044947;28;20194;-51
2021/04/30 04:36:26;;;;;;;9.83;8.83;;;9.50;91.20;;;;;;5049102;28;20186;-51
2021/04/30 04:38:52;;;;;;;9.80;8.40;;;9.90;91.50;;;;;;5046212;28;20460;-51
2021/04/30 04:41:17;;;;;;;9.70;8.70;;;9.60;91.20;;;;;;5049169;28;20182;-50
2021/04/30 04:43:43;;;;;;;10.67;8.10;;;9.90;91.30;;;;;;5045693;28;20210;-51
2021/04/30 04:46:08;;;;;;;9.33;8.30;;;9.70;91.00;;;;;;5044083;28;20241;-51
2021/04/30 04:48:34;;;;;;;12.60;10.20;;;9.90;91.00;;;;;;5042813;28;20183;-51
2021/04/30 04:51:00;;;;;;;10.43;9.43;;;9.70;91.00;;;;;;5044044;28;20193;-51
2021/04/30 04:53:26;;;;;;;10.35;9.27;;;9.60;90.80;;;;;;5046378;28;20212;-51
2021/04/30 04:55:52;;;;;;;11.83;10.20;;;9.50;91.30;;;;;;5042833;28;20221;-51
2021/04/30 04:58:17;;;;;;;10.70;9.60;;;9.90;91.30;;;;;;5041612;28;20429;-52
2021/04/30 05:00:43;;;;;;;12.00;9.70;;;9.60;91.10;;;;;;5044176;28;20464;-52
2021/04/30 05:03:09;;;;;;;10.00;8.63;;;9.80;91.40;;;;;;5042640;28;20205;-52
2021/04/30 05:05:34;;;;;;;10.07;8.60;;;10.10;90.50;;;;;;5043360;28;20401;-51
2021/04/30 05:08:00;;;;;;;9.83;8.93;;;10.10;90.40;;;;;;5043788;28;20178;-54
2021/04/30 05:10:25;;;;;;;10.70;9.60;;;10.10;90.60;;;;;;5043278;28;20668;-54
2021/04/30 05:12:52;;;;;;;10.10;9.10;;;10.00;90.70;;;;;;5041824;28;20224;-52
2021/04/30 05:15:19;;;;;;;12.63;8.80;;;9.90;90.80;;;;;;5043472;28;20194;-52
2021/04/30 05:17:45;;;;;;;12.00;9.30;;;10.00;90.50;;;;;;5038858;28;20190;-53
2021/04/30 05:20:12;;;;;;;10.10;9.10;;;9.70;90.70;;;;;;5042730;28;20221;-52
2021/04/30 05:22:40;;;;;;;11.55;9.63;;;9.50;91.20;;;;;;5042902;28;20552;-53
2021/04/30 05:25:10;;;;;;;10.50;9.40;;;9.50;91.50;;;;;;5056163;28;20252;-53
2021/04/30 05:27:36;;;;;;;13.50;12.13;;;9.70;92.10;;;;;;5043695;28;20205;-53
2021/04/30 05:30:03;;;;;;;10.70;9.60;;;9.80;91.80;;;;;;5045162;28;20560;-52
2021/04/30 05:32:29;;;;;;;11.80;9.50;;;10.20;90.60;;;;;;5046079;28;20209;-53
2021/04/30 05:34:56;;;;;;;10.43;9.43;;;10.30;90.10;;;;;;5046562;28;20371;-53
2021/04/30 05:37:22;;;;;;;10.45;9.35;;;10.20;89.30;;;;;;5047183;28;20261;-53
2021/04/30 05:39:47;;;;;;;10.30;8.60;;;10.20;88.30;;;;;;5044704;28;20646;-53
2021/04/30 05:42:13;;;;;;;11.37;9.90;;;9.50;88.90;;;;;;5037294;28;20600;-54
2021/04/30 05:44:39;;;;;;;10.00;9.00;;;9.70;89.70;;;;;;5038202;28;20703;-54
2021/04/30 05:47:04;;;;;;;10.97;9.60;;;10.10;88.30;;;;;;5048393;28;20185;-53
2021/04/30 05:49:30;;;;;;;9.97;8.97;;;10.00;89.30;;;;;;5045029;28;20182;-54
2021/04/30 05:51:56;;;;;;;10.33;9.33;;;10.00;88.80;;;;;;5041574;28;20611;-54
2021/04/30 05:54:22;;;;;;;11.80;10.40;;;10.20;88.90;;;;;;5036066;28;20236;-55
2021/04/30 05:56:47;;;;;;;12.95;9.52;;;10.30;90.00;;;;;;5046140;28;20200;-56
2021/04/30 05:59:13;;;;;;;10.40;8.67;;;10.30;89.50;;;;;;5044505;28;20212;-54
2021/04/30 06:01:39;;;;;;;11.00;9.90;;;10.40;87.80;;;;;;5044258;28;20185;-56
2021/04/30 06:04:05;;;;;;;13.77;9.63;;;10.30;87.80;;;;;;5044964;28;20263;-55
2021/04/30 06:06:30;;;;;;;10.53;9.30;;;10.40;88.80;;;;;;5043147;28;20440;-54
2021/04/30 06:08:56;;;;;;;10.87;9.77;;;10.50;89.20;;;;;;5042400;28;20232;-57
2021/04/30 06:11:22;;;;;;;10.70;8.97;;;10.50;89.50;;;;;;5045130;28;20183;-51
2021/04/30 06:13:47;;;;;;;10.87;9.77;;;10.30;88.10;;;;;;5045218;28;20739;-50
2021/04/30 06:16:13;;;;;;;11.00;9.90;;;10.40;88.40;;;;;;5044221;28;20274;-53
2021/04/30 06:18:38;;;;;;;9.80;8.90;;;10.10;88.20;;;;;;5040025;28;20190;-53
2021/04/30 06:21:04;;;;;;;9.47;7.70;;;10.30;90.10;;;;;;5043791;28;20186;-56
2021/04/30 06:23:30;;;;;;;13.53;10.40;;;10.10;89.30;;;;;;5059906;28;20201;-56
2021/04/30 06:25:55;;;;;;;10.80;9.70;;;10.70;89.00;;;;;;5045633;28;20190;-51
2021/04/30 06:28:21;;;;;;;10.17;8.83;;;10.60;88.00;;;;;;5044734;28;20184;-51
2021/04/30 06:30:47;;;;;;;10.80;9.73;;;10.70;86.20;;;;;;5044774;28;20233;-51
2021/04/30 06:33:13;;;;;;;10.50;9.25;;;10.60;87.10;;;;;;5036894;28;20571;-50
2021/04/30 06:35:39;;;;;;;9.97;8.80;;;10.60;85.60;;;;;;5044903;28;20273;-53
2021/04/30 06:38:04;;;;;;;9.30;8.40;;;10.70;85.70;;;;;;5049078;28;20462;-54
2021/04/30 06:40:31;;;;;;;9.67;8.67;;;10.50;84.80;;;;;;5046926;28;20289;-52
2021/04/30 06:42:57;;;;;;;8.93;8.02;;;10.50;85.30;;;;;;5044090;28;20227;-52
2021/04/30 06:45:23;;;;;;;10.60;8.95;;;10.70;85.80;;;;;;5041729;28;20224;-50
2021/04/30 06:47:48;;;;;;;11.13;9.88;;;10.30;86.60;;;;;;5060100;28;20182;-52
2021/04/30 06:50:14;;;;;;;9.13;8.23;;;10.50;86.40;;;;;;5042508;28;20193;-53
2021/04/30 06:52:40;;;;;;;10.27;9.27;;;10.20;86.40;;;;;;5045860;28;20205;-50
2021/04/30 06:55:07;;;;;;;9.93;8.73;;;10.50;86.40;;;;;;5043696;28;20205;-51
2021/04/30 06:57:32;;;;;;;10.57;9.48;;;10.30;86.40;;;;;;5039589;28;20239;-52
2021/04/30 06:59:58;;;;;;;9.87;8.87;;;10.50;86.40;;;;;;5044922;28;20201;-49
2021/04/30 07:02:24;;;;;;;9.70;8.70;;;10.50;86.40;;;;;;5044895;28;20456;-50
2021/04/30 07:04:49;;;;;;;10.03;8.87;;;10.60;86.60;;;;;;5046551;28;20257;-51
2021/04/30 07:07:15;;;;;;;10.23;8.50;;;10.30;86.50;;;;;;5042648;28;20299;-51
2021/04/30 07:09:41;;;;;;;10.63;9.60;;;10.30;86.70;;;;;;5047351;28;20280;-51
2021/04/30 07:12:07;;;;;;;9.53;8.60;;;10.30;87.40;;;;;;5044460;28;21510;-52
2021/04/30 07:14:33;;;;;;;9.38;8.27;;;10.20;88.40;;;;;;5060712;28;20231;-50
2021/04/30 07:16:58;;;;;;;11.03;9.37;;;10.20;87.70;;;;;;5044419;28;20194;-53
2021/04/30 07:19:24;;;;;;;10.13;9.13;;;10.30;87.90;;;;;;5046849;28;20213;-51
2021/04/30 07:21:49;;;;;;;11.00;9.40;;;10.40;87.00;;;;;;5041058;28;20178;-52
2021/04/30 07:24:15;;;;;;;9.33;8.43;;;10.40;86.50;;;;;;5045850;28;20769;-53
2021/04/30 07:26:41;;;;;;;9.57;8.57;;;10.30;85.80;;;;;;5038905;28;20179;-53
2021/04/30 07:29:06;;;;;;;10.57;8.90;;;10.50;85.70;;;;;;5038828;28;20212;-52
2021/04/30 07:31:35;;;;;;;9.57;8.57;;;10.30;85.90;;;;;;5044520;28;20604;-54
2021/04/30 07:34:01;;;;;;;9.52;8.55;;;10.30;86.10;;;;;;5042648;28;20193;-52
2021/04/30 07:36:26;;;;;;;10.33;9.13;;;10.30;86.00;;;;;;5035352;28;20557;-50
2021/04/30 07:38:52;;;;;;;10.73;9.53;;;10.10;86.60;;;;;;5061439;28;20377;-52
2021/04/30 07:41:18;;;;;;;15.93;11.85;;;10.30;87.50;;;;;;5043707;28;20194;-50
2021/04/30 07:43:44;;;;;;;10.80;9.63;;;10.20;87.50;;;;;;5045680;28;20313;-53
2021/04/30 07:46:09;;;;;;;10.43;9.33;;;9.90;87.90;;;;;;5045932;28;20178;-52
2021/04/30 07:48:35;;;;;;;10.07;9.07;;;10.60;87.00;;;;;;5048974;28;20269;-50
2021/04/30 07:51:02;;;;;;;12.00;9.37;;;10.50;87.10;;;;;;5049280;28;20225;-53
2021/04/30 07:53:29;;;;;;;10.13;8.98;;;10.60;87.40;;;;;;5048830;28;20304;-52
2021/04/30 07:55:55;;;;;;;9.55;8.60;;;10.40;87.30;;;;;;5048328;28;20259;-53
2021/04/30 07:58:25;;;;;;;11.10;10.00;;;10.30;87.50;;;;;;5047018;28;20180;-52
2021/04/30 08:00:52;;;;;;;10.98;8.70;;;10.60;88.00;;;;;;5046409;28;20446;-52
2021/04/30 08:03:17;;;;;;;10.88;9.73;;;10.30;87.30;;;;;;5048008;28;20626;-52
2021/04/30 08:05:43;;;;;;;10.13;9.13;;;10.50;88.20;;;;;;5046349;28;20597;-51
2021/04/30 08:08:09;;;;;;;10.73;9.63;;;10.40;88.10;;;;;;5031614;28;20183;-51
2021/04/30 08:10:34;;;;;;;9.60;8.60;;;10.60;88.20;;;;;;5050177;28;20204;-51
2021/04/30 08:13:00;;;;;;;16.40;14.20;;;10.70;87.60;;;;;;5044327;28;20718;-52
2021/04/30 08:15:26;;;;;;;10.90;9.57;;;10.70;88.70;;;;;;5046012;28;20191;-50
2021/04/30 08:17:51;;;;;;;11.57;9.13;;;10.50;88.80;;;;;;5044126;28;20188;-51
2021/04/30 08:20:17;;;;;;;10.83;9.10;;;10.40;88.60;;;;;;5048929;28;20707;-50
2021/04/30 08:22:43;;;;;;;9.80;8.83;;;10.80;88.80;;;;;;5034614;28;20689;-50
2021/04/30 08:25:09;;;;;;;9.80;8.73;;;10.60;87.10;;;;;;5044264;28;20208;-52
2021/04/30 08:27:35;;;;;;;10.90;8.93;;;10.70;87.70;;;;;;5049747;28;20171;-51
2021/04/30 08:30:00;;;;;;;10.33;9.33;;;10.50;88.10;;;;;;5045163;28;20194;-51
2021/04/30 08:32:26;;;;;;;14.40;8.63;;;10.40;88.50;;;;;;5048283;28;20481;-51
2021/04/30 08:34:53;;;;;;;12.50;10.83;;;10.70;88.80;;;;;;5042879;28;20281;-51
2021/04/30 08:37:19;;;;;;;12.02;9.80;;;10.70;88.40;;;;;;5044873;28;20185;-49
2021/04/30 08:39:45;;;;;;;10.75;8.85;;;10.70;88.10;;;;;;5045588;28;20206;-49
2021/04/30 08:42:11;;;;;;;10.70;8.53;;;10.70;87.60;;;;;;5047281;28;20204;-50
2021/04/30 08:44:37;;;;;;;9.93;8.90;;;11.00;88.20;;;;;;5047964;28;20684;-52
2021/04/30 08:47:03;;;;;;;9.60;8.63;;;11.10;88.00;;;;;;5048581;28;20301;-52
2021/04/30 08:49:29;;;;;;;9.83;8.83;;;11.10;86.80;;;;;;5045634;28;20192;-52
2021/04/30 08:51:55;;;;;;;9.40;8.37;;;11.20;86.30;;;;;;5047085;28;20480;-52
2021/04/30 08:54:20;;;;;;;10.57;8.90;;;11.10;85.90;;;;;;5044526;28;20186;-52
2021/04/30 08:56:54;;;;;;;11.93;9.50;;;11.00;86.20;;;;;;5046367;28;20308;-52
2021/04/30 08:59:22;;;;;;;9.93;8.93;;;10.90;86.90;;;;;;5043804;28;20207;-53
2021/04/30 09:01:48;;;;;;;11.27;9.57;;;11.10;85.40;;;;;;5046938;28;20198;-53
2021/04/30 09:04:13;;;;;;;9.53;8.63;;;11.10;85.60;;;;;;5062905;28;20183;-53
2021/04/30 09:06:41;;;;;;;11.13;9.60;;;11.10;84.30;;;;;;5046874;28;20434;-51
2021/04/30 09:09:08;;;;;;;14.55;10.48;;;10.90;85.40;;;;;;5039782;28;21072;-48
2021/04/30 09:11:53;;;;;;;11.20;10.02;;;11.40;85.60;;;;;;5047195;28;20196;-49
2021/04/30 09:14:23;;;;;;;11.48;9.65;;;11.40;86.40;;;;;;5048131;28;20229;-51
2021/04/30 09:17:07;;;;;;;11.85;9.75;;;11.70;86.50;;;;;;5046049;28;20198;-52
2021/04/30 09:19:39;;;;;;;11.02;9.80;;;11.50;86.80;;;;;;5047728;28;20301;-50
2021/04/30 09:22:07;;;;;;;12.80;11.50;;;11.50;86.70;;;;;;5047366;28;20195;-54
2021/04/30 09:24:33;;;;;;;14.00;11.10;;;11.20;86.50;;;;;;5047033;28;20184;-53
2021/04/30 09:26:59;;;;;;;11.05;9.85;;;11.30;87.10;;;;;;5048487;28;20182;-52
2021/04/30 09:29:31;;;;;;;14.27;11.63;;;11.20;88.80;;;;;;5048967;28;20248;-53
2021/04/30 09:31:57;;;;;;;11.50;10.40;;;11.10;89.10;;;;;;5048006;28;20272;-50
2021/04/30 09:34:35;;;;;;;11.80;10.60;;;11.00;89.50;;;;;;5045531;28;20534;-53
2021/04/30 09:37:04;;;;;;;11.25;10.10;;;10.90;90.30;;;;;;5035420;28;20239;-54
2021/04/30 09:39:45;;;;;;;11.18;10.07;;;11.00;90.30;;;;;;5047035;28;20203;-53
2021/04/30 09:42:13;;;;;;;11.95;10.77;;;10.90;90.00;;;;;;5046618;28;20223;-53
2021/04/30 09:44:41;;;;;;;14.02;9.52;;;10.90;90.10;;;;;;5046545;28;20190;-54
2021/04/30 09:47:25;;;;;;;11.05;9.95;;;11.10;89.80;;;;;;5042688;28;20176;-54
2021/04/30 09:49:59;;;;;;;10.48;9.07;;;11.10;90.10;;;;;;5047428;28;20245;-54
2021/04/30 09:52:27;;;;;;;12.32;11.07;;;11.00;90.00;;;;;;5047270;28;20210;-54
2021/04/30 09:54:54;;;;;;;13.88;11.00;;;11.10;90.10;;;;;;5043470;28;20273;-54
2021/04/30 09:57:25;;;;;;;11.90;10.00;;;10.60;90.30;;;;;;5037610;28;20206;-54
2021/04/30 10:00:04;;;;;;;13.20;11.02;;;11.10;90.70;;;;;;5032567;28;20549;-54
2021/04/30 10:02:33;;;;;;;11.98;10.50;;;11.20;90.40;;;;;;5041454;28;20208;-54
2021/04/30 10:05:10;;;;;;;15.05;11.95;;;11.30;90.50;;;;;;5040870;28;20194;-54
2021/04/30 10:07:38;;;;;;;12.23;10.93;;;11.40;90.70;;;;;;5043802;28;20179;-54
2021/04/30 10:10:10;;;;;;;13.82;12.43;;;11.30;90.60;;;;;;5046244;28;20205;-55
2021/04/30 10:12:43;;;;;;;15.02;10.80;;;11.60;90.50;;;;;;5043570;28;20230;-54
2021/04/30 10:15:12;;;;;;;16.15;12.18;;;11.10;90.70;;;;;;5045920;28;20226;-54
2021/04/30 10:17:38;;;;;;;14.35;11.80;;;11.20;91.50;;;;;;5045264;28;20607;-55
2021/04/30 10:20:06;;;;;;;13.02;11.73;;;11.50;92.00;;;;;;5046900;28;20211;-55
2021/04/30 10:22:34;;;;;;;15.07;12.52;;;11.10;92.50;;;;;;5044205;28;20252;-54
2021/04/30 10:25:02;;;;;;;14.23;12.05;;;11.30;92.90;;;;;;5044742;28;20246;-56
2021/04/30 10:27:33;;;;;;;13.35;11.88;;;11.30;92.50;;;;;;5043722;28;20696;-56
2021/04/30 10:30:23;;;;;;;13.75;12.35;;;11.30;92.80;;;;;;5046678;28;20218;-55
2021/04/30 10:33:10;;;;;;;13.95;12.55;;;11.40;93.50;;;;;;5039457;28;20304;-54
2021/04/30 10:36:19;;;;;;;13.48;12.07;;;11.40;93.90;;;;;;5041914;28;20181;-55
2021/04/30 10:38:47;;;;;;;13.43;12.13;;;11.20;93.60;;;;;;5056793;28;20202;-54
2021/04/30 10:41:14;;;;;;;15.02;13.25;;;11.00;95.00;;;;;;5040803;28;20477;-54
2021/04/30 10:43:40;;;;;;;13.90;12.45;;;10.70;95.80;;;;;;5040494;28;20209;-55
2021/04/30 10:46:15;;;;;;;15.75;13.50;;;10.80;96.80;;;;;;5041588;28;20211;-55
2021/04/30 10:49:11;;;;;;;16.20;12.75;;;10.80;95.90;;;;;;5039801;28;20193;-50
2021/04/30 10:51:39;;;;;;;17.23;14.70;;;10.90;95.90;;;;;;5043253;28;20256;-54
2021/04/30 10:54:26;;;;;;;14.95;13.13;;;10.70;96.90;;;;;;5046376;28;20580;-53
2021/04/30 10:57:05;;;;;;;16.55;14.00;;;10.70;96.10;;;;;;5044850;28;20183;-53
2021/04/30 10:59:40;;;;;;;16.90;14.32;;;10.40;96.60;;;;;;5060501;28;20205;-51
2021/04/30 11:02:08;;;;;;;20.23;15.60;;;10.40;97.30;;;;;;5041215;28;20205;-51
2021/04/30 11:04:34;;;;;;;18.02;14.80;;;10.40;98.90;;;;;;5042989;28;20181;-54
2021/04/30 11:07:00;;;;;;;15.77;14.10;;;10.00;99.30;;;;;;5042981;28;20178;-54
2021/04/30 11:09:37;;;;;;;17.35;15.55;;;10.20;99.90;;;;;;5042946;28;20527;-52
2021/04/30 11:12:21;;;;;;;19.77;15.10;;;10.00;99.60;;;;;;5041712;28;20205;-52
2021/04/30 11:15:07;;;;;;;14.10;12.55;;;10.00;99.80;;;;;;5044220;28;20223;-51
2021/04/30 11:17:53;;;;;;;16.90;14.00;;;9.70;99.90;;;;;;5042781;28;20182;-52
2021/04/30 11:20:22;;;;;;;13.93;12.52;;;9.70;99.90;;;;;;5042430;28;20429;-52
2021/04/30 11:23:19;;;;;;;19.02;13.90;;;9.70;99.90;;;;;;5044901;28;20214;-51
2021/04/30 11:26:00;;;;;;;20.45;16.45;;;9.30;99.90;;;;;;5046953;28;20186;-48
2021/04/30 11:28:29;;;;;;;18.90;14.95;;;9.00;99.90;;;;;;5046539;28;20277;-50
2021/04/30 11:31:16;;;;;;;19.85;14.95;;;9.20;99.90;;;;;;5047403;28;20193;-50
2021/04/30 11:34:15;;;;;;;15.15;13.60;;;9.10;99.90;;;;;;5049498;28;20546;-51
2021/04/30 11:36:48;;;;;;;15.55;13.90;;;9.50;99.90;;;;;;5043878;28;20235;-51
2021/04/30 11:39:20;;;;;;;17.45;14.30;;;9.20;99.90;;;;;;5047611;28;20649;-50
2021/04/30 11:41:46;;;;;;;17.77;13.98;;;8.90;99.90;;;;;;5050069;28;20295;-49
2021/04/30 11:44:14;;;;;;;19.13;15.23;;;8.80;99.90;;;;;;5046664;28;20205;-50
2021/04/30 11:46:40;;;;;;;18.23;14.48;;;8.90;99.90;;;;;;5049316;28;20186;-50
2021/04/30 11:49:05;;;;;;;15.63;14.00;;;9.00;99.90;;;;;;5046124;28;20309;-51
2021/04/30 11:51:42;;;;;;;17.47;13.60;;;8.90;99.90;;;;;;5049379;28;20219;-51
2021/04/30 11:54:08;;;;;;;17.27;14.07;;;9.00;99.90;;;;;;5045861;28;20181;-50
2021/04/30 11:56:34;;;;;;;16.27;14.57;;;8.60;99.90;;;;;;5053487;28;20190;-50
2021/04/30 11:59:00;;;;;;;16.97;14.70;;;8.90;99.90;;;;;;5047363;28;20208;-50
2021/04/30 12:01:27;;;;;;;19.93;14.37;;;9.10;99.90;;;;;;5039780;28;20952;-51
2021/04/30 12:03:55;;;;;;;16.05;13.45;;;9.00;99.90;;;;;;5047607;28;20209;-49
2021/04/30 12:06:26;;;;;;;18.45;13.98;;;8.80;99.90;;;;;;5048978;28;20184;-49
2021/04/30 12:08:53;;;;;;;15.02;13.32;;;8.80;99.90;;;;;;5049364;28;20188;-51
2021/04/30 12:11:25;;;;;;;18.80;14.45;;;8.90;99.90;;;;;;5045134;28;20181;-50
2021/04/30 12:13:52;;;;;;;14.52;13.05;;;8.80;99.90;;;;;;5048257;28;20206;-53
2021/04/30 12:16:18;;;;;;;16.38;13.40;;;8.20;99.90;;;;;;5048872;28;20208;-53
2021/04/30 12:18:45;;;;;;;17.77;14.13;;;8.50;99.90;;;;;;5046905;28;20189;-49
2021/04/30 12:21:22;;;;;;;15.38;12.30;;;8.30;99.90;;;;;;5045730;28;20704;-51
2021/04/30 12:23:49;;;;;;;17.90;13.23;;;8.20;99.90;;;;;;5048244;28;20585;-52
2021/04/30 12:26:22;;;;;;;18.13;13.52;;;8.70;99.90;;;;;;5046173;28;20178;-53
2021/04/30 12:28:48;;;;;;;16.75;14.07;;;8.80;99.90;;;;;;5047422;28;20217;-52
2021/04/30 12:31:14;;;;;;;15.93;14.23;;;8.60;99.90;;;;;;5047451;28;20248;-52
2021/04/30 12:33:44;;;;;;;15.37;12.47;;;8.60;99.90;;;;;;5050184;28;20228;-51
2021/04/30 12:36:16;;;;;;;15.48;12.00;;;8.60;99.90;;;;;;5049967;28;20177;-50
2021/04/30 12:38:43;;;;;;;14.95;13.00;;;8.70;99.90;;;;;;5048601;28;20178;-51
2021/04/30 12:41:14;;;;;;;14.15;12.35;;;8.70;99.90;;;;;;5046135;28;20609;-52
2021/04/30 12:43:40;;;;;;;16.65;12.57;;;8.70;99.90;;;;;;5039791;28;20297;-52
2021/04/30 12:46:33;;;;;;;15.05;12.52;;;8.60;99.90;;;;;;5048835;28;20181;-52